createdAt,value
2023-03-01T07:00:25.869Z,-1.92
2023-03-01T07:00:58.330Z,-1.88
2023-03-01T07:01:30.774Z,-1.85
2023-03-01T07:02:03.164Z,-1.84
2023-03-01T07:02:35.683Z,-1.82
2023-03-01T07:03:08.190Z,-1.82
2023-03-01T07:03:40.564Z,-1.81
2023-03-01T07:04:12.988Z,-1.80
2023-03-01T07:04:45.439Z,-1.75
2023-03-01T07:05:17.861Z,-1.75
2023-03-01T07:05:50.345Z,-1.72
2023-03-01T07:06:22.788Z,-1.67
2023-03-01T07:06:55.305Z,-1.64
2023-03-01T07:07:27.758Z,-1.66
2023-03-01T07:08:00.238Z,-1.64
2023-03-01T07:08:32.649Z,-1.63
2023-03-01T07:09:05.113Z,-1.60
2023-03-01T07:09:37.564Z,-1.60
2023-03-01T07:10:10.025Z,-1.59
2023-03-01T07:10:42.493Z,-1.54
2023-03-01T07:11:14.932Z,-1.51
2023-03-01T07:11:47.393Z,-1.48
2023-03-01T07:12:19.833Z,-1.48
2023-03-01T07:12:52.404Z,-1.42
2023-03-01T07:13:24.860Z,-1.42
2023-03-01T07:13:57.315Z,-1.39
2023-03-01T07:14:29.740Z,-1.33
2023-03-01T07:15:02.221Z,-1.30
2023-03-01T07:15:34.652Z,-1.31
2023-03-01T07:16:07.132Z,-1.30
2023-03-01T07:16:39.588Z,-1.27
2023-03-01T07:17:12.030Z,-1.25
2023-03-01T07:17:44.521Z,-1.24
2023-03-01T07:18:16.986Z,-1.21
2023-03-01T07:18:49.457Z,-1.21
2023-03-01T07:19:21.910Z,-1.17
2023-03-01T07:19:54.404Z,-1.13
2023-03-01T07:20:26.918Z,-1.09
2023-03-01T07:20:59.382Z,-1.05
2023-03-01T07:21:31.808Z,-1.02
2023-03-01T07:22:04.354Z,-0.97
2023-03-01T07:22:36.798Z,-0.95
2023-03-01T07:23:09.278Z,-0.89
2023-03-01T07:23:41.745Z,-0.86
2023-03-01T07:24:15.076Z,-0.81
2023-03-01T07:24:47.517Z,-0.78
2023-03-01T07:25:19.969Z,-0.70
2023-03-01T07:25:52.486Z,-0.68
2023-03-01T07:26:26.201Z,-0.62
2023-03-01T07:26:57.373Z,-0.57
2023-03-01T07:27:29.823Z,-0.48
2023-03-01T07:28:02.313Z,-0.45
2023-03-01T07:28:34.768Z,-0.39
2023-03-01T07:29:07.236Z,-0.31
2023-03-01T07:29:39.686Z,-0.24
2023-03-01T07:30:12.183Z,-0.16
2023-03-01T07:30:44.598Z,-0.06
2023-03-01T07:31:17.116Z,0.05
2023-03-01T07:31:49.642Z,0.20
2023-03-01T07:32:22.164Z,0.36
2023-03-01T07:32:55.684Z,0.60
2023-03-01T07:33:27.060Z,0.86
2023-03-01T07:33:59.677Z,1.21
2023-03-01T07:34:32.121Z,1.64
2023-03-01T07:35:04.596Z,2.15
2023-03-01T07:35:37.084Z,2.70
2023-03-01T07:36:09.510Z,3.31
2023-03-01T07:36:42.015Z,3.90
2023-03-01T07:37:14.477Z,4.50
2023-03-01T07:37:46.921Z,5.04
2023-03-01T07:38:19.422Z,5.57
2023-03-01T07:38:51.867Z,6.07
2023-03-01T07:39:24.323Z,6.56
2023-03-01T07:39:56.773Z,7.02
2023-03-01T07:40:29.303Z,7.45
2023-03-01T07:41:01.770Z,7.81
2023-03-01T07:41:34.237Z,8.15
2023-03-01T07:42:06.722Z,8.42
2023-03-01T07:42:39.179Z,8.68
2023-03-01T07:43:11.628Z,8.88
2023-03-01T07:43:44.098Z,9.09
2023-03-01T07:44:16.670Z,9.24
2023-03-01T07:44:49.142Z,9.46
2023-03-01T07:45:21.656Z,9.64
2023-03-01T07:45:54.171Z,9.79
2023-03-01T07:46:26.523Z,9.99
2023-03-01T07:46:58.954Z,10.21
2023-03-01T07:47:31.437Z,10.33
2023-03-01T07:48:03.944Z,10.55
2023-03-01T07:48:36.404Z,10.68
2023-03-01T07:49:08.872Z,10.86
2023-03-01T07:49:41.326Z,10.98
2023-03-01T07:50:13.994Z,11.03
2023-03-01T07:50:46.962Z,11.17
2023-03-01T07:51:21.154Z,11.34
2023-03-01T07:51:51.851Z,11.41
2023-03-01T07:52:24.313Z,11.65
2023-03-01T07:52:56.760Z,11.90
2023-03-01T07:53:29.255Z,12.15
2023-03-01T07:54:01.729Z,12.29
2023-03-01T07:54:34.201Z,12.38
2023-03-01T07:55:06.667Z,12.45
2023-03-01T07:55:39.187Z,12.56
2023-03-01T07:56:11.648Z,12.67
2023-03-01T07:56:44.092Z,12.88
2023-03-01T07:57:16.561Z,12.95
2023-03-01T07:57:49.086Z,13.11
2023-03-01T07:58:21.546Z,13.24
2023-03-01T07:58:54.008Z,13.29
2023-03-01T07:59:26.455Z,13.30
2023-03-01T07:59:58.938Z,13.40
2023-03-01T08:00:31.390Z,13.15
2023-03-01T08:01:03.848Z,12.77
2023-03-01T08:01:36.337Z,12.49
2023-03-01T08:02:08.866Z,12.48
2023-03-01T08:02:41.290Z,12.62
2023-03-01T08:03:13.830Z,12.85
2023-03-01T08:03:46.286Z,13.04
2023-03-01T08:04:18.718Z,13.15
2023-03-01T08:04:51.208Z,13.17
2023-03-01T08:05:23.626Z,13.36
2023-03-01T08:05:56.106Z,13.56
2023-03-01T08:06:28.655Z,13.74
2023-03-01T08:07:01.058Z,13.89
2023-03-01T08:07:33.584Z,14.09
2023-03-01T08:08:06.052Z,14.20
2023-03-01T08:08:38.552Z,14.38
2023-03-01T08:09:11.015Z,14.57
2023-03-01T08:09:43.499Z,14.83
2023-03-01T08:10:15.996Z,14.99
2023-03-01T08:10:48.476Z,15.12
2023-03-01T08:11:21.155Z,15.27
2023-03-01T08:11:53.461Z,15.46
2023-03-01T08:12:25.898Z,15.61
2023-03-01T08:12:58.364Z,15.74
2023-03-01T08:13:30.826Z,15.94
2023-03-01T08:14:03.293Z,15.99
2023-03-01T08:14:35.745Z,15.92
2023-03-01T08:15:08.220Z,15.81
2023-03-01T08:15:40.680Z,15.81
2023-03-01T08:16:13.208Z,15.75
2023-03-01T08:16:45.677Z,15.86
2023-03-01T08:17:18.109Z,15.78
2023-03-01T08:17:50.571Z,15.75
2023-03-01T08:18:23.033Z,15.54
2023-03-01T08:18:55.504Z,15.36
2023-03-01T08:19:27.971Z,15.30
2023-03-01T08:20:00.470Z,15.26
2023-03-01T08:20:32.938Z,15.02
2023-03-01T08:21:05.410Z,14.62
2023-03-01T08:21:37.878Z,14.53
2023-03-01T08:22:10.379Z,14.72
2023-03-01T08:22:42.829Z,14.84
2023-03-01T08:23:15.295Z,14.94
2023-03-01T08:23:47.894Z,15.15
2023-03-01T08:24:20.358Z,15.28
2023-03-01T08:24:52.922Z,15.17
2023-03-01T08:25:25.425Z,15.23
2023-03-01T08:25:57.876Z,15.30
2023-03-01T08:26:30.594Z,15.49
2023-03-01T08:27:02.853Z,15.75
2023-03-01T08:27:35.306Z,15.88
2023-03-01T08:28:07.759Z,16.01
2023-03-01T08:28:40.260Z,16.18
2023-03-01T08:29:12.734Z,16.37
2023-03-01T08:29:45.287Z,16.52
2023-03-01T08:30:17.920Z,16.45
2023-03-01T08:30:50.367Z,16.63
2023-03-01T08:31:22.977Z,16.83
2023-03-01T08:31:55.451Z,16.95
2023-03-01T08:32:27.866Z,17.06
2023-03-01T08:33:00.266Z,16.85
2023-03-01T08:33:32.783Z,16.60
2023-03-01T08:34:05.297Z,16.55
2023-03-01T08:34:37.758Z,16.49
2023-03-01T08:35:10.229Z,16.58
2023-03-01T08:35:42.715Z,16.58
2023-03-01T08:36:15.124Z,16.40
2023-03-01T08:36:47.640Z,15.84
2023-03-01T08:37:20.067Z,15.74
2023-03-01T08:37:52.530Z,15.92
2023-03-01T08:38:24.971Z,16.26
2023-03-01T08:38:57.428Z,16.45
2023-03-01T08:39:29.929Z,16.58
2023-03-01T08:40:02.387Z,16.74
2023-03-01T08:40:34.855Z,16.90
2023-03-01T08:41:07.307Z,16.90
2023-03-01T08:41:39.784Z,17.11
2023-03-01T08:42:12.236Z,17.28
2023-03-01T08:42:44.721Z,17.54
2023-03-01T08:43:17.167Z,17.51
2023-03-01T08:43:49.662Z,17.41
2023-03-01T08:44:22.138Z,17.40
2023-03-01T08:44:54.617Z,17.51
2023-03-01T08:45:27.067Z,17.55
2023-03-01T08:45:59.593Z,17.63
2023-03-01T08:46:32.325Z,17.74
2023-03-01T08:47:04.456Z,17.92
2023-03-01T08:47:36.945Z,17.73
2023-03-01T08:48:09.388Z,17.41
2023-03-01T08:48:41.846Z,17.18
2023-03-01T08:49:14.292Z,17.00
2023-03-01T08:49:46.761Z,17.17
2023-03-01T08:50:19.221Z,16.90
2023-03-01T08:50:51.678Z,16.88
2023-03-01T08:51:24.157Z,17.13
2023-03-01T08:51:56.624Z,17.15
2023-03-01T08:52:29.101Z,17.14
2023-03-01T08:53:01.548Z,16.71
2023-03-01T08:53:33.998Z,16.48
2023-03-01T08:54:06.511Z,16.26
2023-03-01T08:54:38.975Z,16.33
2023-03-01T08:55:11.422Z,16.26
2023-03-01T08:55:43.888Z,16.56
2023-03-01T08:56:16.354Z,16.92
2023-03-01T08:56:48.847Z,17.25
2023-03-01T08:57:21.285Z,17.62
2023-03-01T08:57:53.775Z,17.94
2023-03-01T08:58:26.222Z,18.22
2023-03-01T08:58:58.700Z,18.62
2023-03-01T08:59:31.179Z,18.86
2023-03-01T09:00:03.642Z,18.94
2023-03-01T09:00:36.115Z,18.76
2023-03-01T09:01:08.604Z,18.54
2023-03-01T09:01:41.062Z,18.31
2023-03-01T09:02:13.568Z,18.22
2023-03-01T09:02:46.002Z,18.25
2023-03-01T09:03:18.503Z,18.31
2023-03-01T09:03:51.009Z,18.25
2023-03-01T09:04:23.458Z,18.18
2023-03-01T09:04:55.930Z,18.19
2023-03-01T09:05:28.367Z,18.21
2023-03-01T09:06:00.829Z,18.19
2023-03-01T09:06:33.495Z,18.33
2023-03-01T09:07:05.766Z,18.34
2023-03-01T09:07:38.241Z,18.15
2023-03-01T09:08:10.771Z,18.15
2023-03-01T09:08:43.314Z,18.25
2023-03-01T09:09:15.758Z,18.19
2023-03-01T09:09:48.225Z,18.25
2023-03-01T09:10:20.721Z,18.29
2023-03-01T09:10:53.204Z,18.31
2023-03-01T09:11:25.713Z,18.10
2023-03-01T09:11:58.174Z,17.84
2023-03-01T09:12:30.631Z,17.82
2023-03-01T09:13:03.122Z,17.64
2023-03-01T09:13:35.575Z,17.33
2023-03-01T09:14:08.070Z,17.46
2023-03-01T09:14:40.548Z,17.54
2023-03-01T09:15:13.033Z,17.57
2023-03-01T09:15:45.461Z,17.67
2023-03-01T09:16:17.960Z,17.92
2023-03-01T09:16:50.447Z,18.03
2023-03-01T09:17:22.862Z,18.21
2023-03-01T09:17:55.356Z,18.36
2023-03-01T09:18:27.823Z,18.58
2023-03-01T09:19:00.316Z,18.65
2023-03-01T09:19:32.815Z,18.65
2023-03-01T09:20:05.302Z,18.73
2023-03-01T09:20:37.772Z,18.59
2023-03-01T09:21:10.238Z,18.82
2023-03-01T09:21:42.714Z,18.95
2023-03-01T09:22:15.205Z,18.79
2023-03-01T09:22:47.685Z,18.73
2023-03-01T09:23:20.134Z,18.72
2023-03-01T09:23:52.602Z,18.84
2023-03-01T09:24:25.099Z,18.97
2023-03-01T09:24:57.548Z,19.13
2023-03-01T09:25:30.071Z,19.31
2023-03-01T09:26:02.491Z,19.20
2023-03-01T09:26:34.981Z,18.94
2023-03-01T09:27:07.444Z,18.95
2023-03-01T09:27:39.909Z,19.08
2023-03-01T09:28:24.162Z,19.32
2023-03-01T09:28:44.839Z,19.35
2023-03-01T09:29:17.389Z,19.51
2023-03-01T09:29:49.840Z,19.33
2023-03-01T09:30:22.405Z,19.24
2023-03-01T09:30:54.885Z,19.25
2023-03-01T09:31:27.368Z,18.87
2023-03-01T09:31:59.859Z,18.76
2023-03-01T09:32:32.321Z,18.50
2023-03-01T09:33:04.818Z,18.02
2023-03-01T09:33:37.296Z,17.43
2023-03-01T09:34:09.769Z,16.98
2023-03-01T09:34:42.224Z,16.99
2023-03-01T09:35:14.691Z,17.00
2023-03-01T09:35:47.270Z,16.88
2023-03-01T09:36:20.581Z,17.04
2023-03-01T09:36:53.071Z,17.15
2023-03-01T09:37:25.501Z,17.26
2023-03-01T09:37:57.946Z,17.32
2023-03-01T09:38:30.408Z,17.55
2023-03-01T09:39:02.882Z,17.82
2023-03-01T09:39:35.357Z,17.99
2023-03-01T09:40:07.822Z,18.17
2023-03-01T09:40:40.323Z,18.40
2023-03-01T09:41:12.802Z,18.49
2023-03-01T09:41:45.272Z,18.46
2023-03-01T09:42:17.755Z,18.39
2023-03-01T09:42:50.253Z,18.19
2023-03-01T09:43:22.708Z,18.03
2023-03-01T09:43:56.479Z,17.48
2023-03-01T09:44:27.633Z,17.26
2023-03-01T09:45:00.129Z,17.38
2023-03-01T09:45:32.597Z,17.74
2023-03-01T09:46:05.141Z,17.87
2023-03-01T09:46:37.690Z,17.81
2023-03-01T09:47:10.955Z,17.32
2023-03-01T09:47:43.475Z,16.90
2023-03-01T09:48:15.940Z,16.73
2023-03-01T09:48:48.456Z,16.77
2023-03-01T09:49:20.924Z,16.67
2023-03-01T09:49:53.431Z,16.41
2023-03-01T09:50:25.991Z,16.00
2023-03-01T09:50:58.474Z,16.01
2023-03-01T09:51:30.994Z,16.18
2023-03-01T09:52:03.460Z,16.53
2023-03-01T09:52:35.953Z,16.83
2023-03-01T09:53:08.411Z,17.22
2023-03-01T09:53:40.884Z,17.59
2023-03-01T09:54:13.361Z,17.84
2023-03-01T09:54:45.826Z,18.02
2023-03-01T09:55:18.351Z,18.07
2023-03-01T09:55:50.826Z,17.92
2023-03-01T09:56:23.293Z,17.59
2023-03-01T09:56:55.790Z,17.29
2023-03-01T09:57:28.275Z,17.08
2023-03-01T09:58:00.827Z,16.95
2023-03-01T09:58:33.244Z,16.73
2023-03-01T09:59:05.710Z,16.56
2023-03-01T09:59:38.241Z,16.65
2023-03-01T10:00:10.716Z,16.65
2023-03-01T10:00:43.186Z,16.53
2023-03-01T10:01:15.642Z,16.59
2023-03-01T10:01:48.109Z,16.62
2023-03-01T10:02:20.610Z,16.90
2023-03-01T10:02:53.107Z,17.17
2023-03-01T10:03:25.575Z,17.38
2023-03-01T10:03:58.112Z,17.23
2023-03-01T10:04:30.523Z,16.88
2023-03-01T10:05:03.286Z,16.63
2023-03-01T10:05:35.695Z,16.67
2023-03-01T10:06:08.163Z,16.89
2023-03-01T10:06:40.646Z,16.74
2023-03-01T10:07:13.105Z,16.80
2023-03-01T10:07:45.614Z,16.88
2023-03-01T10:08:18.091Z,17.10
2023-03-01T10:08:50.548Z,17.26
2023-03-01T10:09:23.004Z,17.17
2023-03-01T10:09:55.481Z,16.75
2023-03-01T10:10:27.940Z,16.26
2023-03-01T10:11:00.397Z,15.88
2023-03-01T10:11:32.876Z,15.52
2023-03-01T10:12:05.335Z,15.57
2023-03-01T10:12:37.866Z,15.81
2023-03-01T10:13:10.336Z,15.94
2023-03-01T10:13:42.815Z,16.03
2023-03-01T10:14:15.294Z,15.92
2023-03-01T10:14:47.749Z,15.60
2023-03-01T10:15:20.306Z,15.46
2023-03-01T10:15:52.894Z,15.35
2023-03-01T10:16:25.266Z,15.23
2023-03-01T10:16:57.740Z,15.35
2023-03-01T10:17:30.215Z,15.36
2023-03-01T10:18:02.727Z,15.15
2023-03-01T10:18:35.229Z,15.19
2023-03-01T10:19:07.690Z,15.17
2023-03-01T10:19:40.156Z,15.19
2023-03-01T10:20:12.619Z,15.26
2023-03-01T10:20:45.098Z,15.39
2023-03-01T10:21:17.559Z,15.64
2023-03-01T10:21:50.011Z,15.82
2023-03-01T10:22:22.495Z,15.96
2023-03-01T10:22:54.973Z,15.88
2023-03-01T10:23:27.519Z,15.88
2023-03-01T10:23:59.979Z,15.99
2023-03-01T10:24:32.467Z,16.06
2023-03-01T10:25:04.951Z,15.93
2023-03-01T10:25:37.473Z,15.75
2023-03-01T10:26:09.966Z,15.67
2023-03-01T10:26:42.444Z,15.41
2023-03-01T10:27:14.875Z,15.24
2023-03-01T10:27:47.362Z,15.19
2023-03-01T10:28:19.819Z,15.08
2023-03-01T10:28:52.302Z,14.78
2023-03-01T10:29:24.777Z,14.53
2023-03-01T10:29:57.229Z,13.99
2023-03-01T10:30:29.739Z,13.70
2023-03-01T10:31:02.252Z,13.41
2023-03-01T10:31:34.805Z,13.27
2023-03-01T10:32:07.201Z,13.00
2023-03-01T10:32:39.777Z,12.71
2023-03-01T10:33:12.289Z,12.63
2023-03-01T10:33:44.776Z,12.69
2023-03-01T10:34:17.279Z,12.77
2023-03-01T10:34:49.770Z,12.77
2023-03-01T10:35:22.301Z,12.64
2023-03-01T10:35:54.811Z,12.29
2023-03-01T10:36:27.357Z,12.05
2023-03-01T10:36:59.886Z,11.85
2023-03-01T10:37:32.374Z,11.64
2023-03-01T10:38:04.881Z,11.24
2023-03-01T10:38:37.449Z,10.83
2023-03-01T10:39:09.978Z,10.55
2023-03-01T10:39:42.580Z,10.32
2023-03-01T10:40:15.102Z,10.15
2023-03-01T10:40:47.658Z,9.93
2023-03-01T10:41:20.160Z,9.86
2023-03-01T10:41:52.661Z,9.76
2023-03-01T10:42:25.125Z,9.67
2023-03-01T10:42:57.634Z,9.58
2023-03-01T10:43:30.128Z,9.61
2023-03-01T10:44:02.610Z,9.63
2023-03-01T10:44:35.105Z,9.71
2023-03-01T10:45:07.568Z,9.79
2023-03-01T10:45:40.109Z,9.81
2023-03-01T10:46:12.620Z,9.79
2023-03-01T10:46:45.122Z,9.78
2023-03-01T10:47:17.549Z,9.66
2023-03-01T10:47:50.039Z,9.58
2023-03-01T10:48:22.500Z,9.48
2023-03-01T10:48:55.028Z,9.43
2023-03-01T10:49:27.505Z,9.46
2023-03-01T10:50:00.035Z,9.49
2023-03-01T10:50:32.512Z,9.42
2023-03-01T10:51:05.015Z,9.40
2023-03-01T10:51:37.496Z,9.34
2023-03-01T10:52:09.970Z,9.32
2023-03-01T10:52:42.477Z,9.25
2023-03-01T10:53:14.970Z,9.23
2023-03-01T10:53:47.455Z,9.24
2023-03-01T10:54:19.935Z,9.25
2023-03-01T10:54:52.424Z,9.20
2023-03-01T10:55:24.937Z,9.09
2023-03-01T10:55:57.465Z,8.97
2023-03-01T10:56:29.940Z,8.94
2023-03-01T10:57:02.439Z,8.88
2023-03-01T10:57:34.975Z,8.90
2023-03-01T10:58:07.442Z,8.90
2023-03-01T10:58:39.933Z,8.91
2023-03-01T10:59:12.428Z,8.94
2023-03-01T10:59:44.935Z,9.01
2023-03-01T11:00:17.441Z,9.02
2023-03-01T11:00:50.042Z,9.06
2023-03-01T11:01:22.604Z,9.10
2023-03-01T11:01:55.035Z,9.10
2023-03-01T11:02:27.528Z,8.93
2023-03-01T11:02:59.974Z,8.71
2023-03-01T11:03:32.442Z,8.48
2023-03-01T11:04:04.925Z,8.35
2023-03-01T11:04:37.452Z,8.25
2023-03-01T11:05:09.904Z,8.21
2023-03-01T11:05:42.385Z,8.21
2023-03-01T11:06:14.889Z,8.22
2023-03-01T11:06:47.363Z,8.20
2023-03-01T11:07:19.912Z,8.26
2023-03-01T11:07:52.458Z,8.33
2023-03-01T11:08:24.967Z,8.48
2023-03-01T11:08:57.466Z,8.62
2023-03-01T11:09:29.939Z,8.72
2023-03-01T11:10:02.424Z,8.75
2023-03-01T11:10:34.936Z,8.79
2023-03-01T11:11:07.503Z,8.83
2023-03-01T11:11:40.092Z,8.79
2023-03-01T11:12:12.559Z,8.76
2023-03-01T11:12:45.048Z,8.71
2023-03-01T11:13:17.590Z,8.65
2023-03-01T11:13:50.097Z,8.63
2023-03-01T11:14:27.608Z,8.65
2023-03-01T11:14:55.126Z,8.68
2023-03-01T11:15:27.650Z,8.58
2023-03-01T11:16:00.185Z,8.45
2023-03-01T11:16:32.688Z,8.35
2023-03-01T11:17:05.132Z,8.35
2023-03-01T11:17:47.977Z,8.29
2023-03-01T11:18:14.257Z,8.26
2023-03-01T11:18:48.123Z,8.17
2023-03-01T11:19:15.056Z,8.10
2023-03-01T11:20:00.896Z,8.03
2023-03-01T11:20:19.989Z,8.00
2023-03-01T11:20:52.477Z,8.02
2023-03-01T11:21:24.969Z,7.99
2023-03-01T11:21:57.528Z,7.96
2023-03-01T11:22:29.991Z,7.97
2023-03-01T11:23:02.436Z,8.03
2023-03-01T11:23:34.891Z,8.17
2023-03-01T11:24:07.382Z,8.25
2023-03-01T11:24:41.125Z,8.25
2023-03-01T11:25:12.399Z,8.22
2023-03-01T11:25:44.903Z,8.21
2023-03-01T11:26:17.390Z,8.21
2023-03-01T11:26:49.864Z,8.20
2023-03-01T11:27:22.364Z,8.17
2023-03-01T11:27:54.871Z,8.17
2023-03-01T11:28:28.263Z,8.21
2023-03-01T11:28:59.832Z,8.25
2023-03-01T11:29:37.250Z,8.22
2023-03-01T11:30:04.806Z,8.17
2023-03-01T11:30:37.357Z,8.04
2023-03-01T11:31:09.934Z,8.02
2023-03-01T11:31:55.548Z,7.96
2023-03-01T11:32:14.875Z,7.96
2023-03-01T11:32:47.403Z,7.94
2023-03-01T11:33:19.833Z,7.96
2023-03-01T11:33:52.307Z,7.85
2023-03-01T11:34:24.796Z,7.87
2023-03-01T11:34:57.307Z,7.94
2023-03-01T11:35:29.863Z,8.00
2023-03-01T11:36:02.425Z,8.03
2023-03-01T11:36:34.865Z,8.03
2023-03-01T11:37:07.391Z,8.03
2023-03-01T11:37:39.894Z,8.11
2023-03-01T11:38:12.401Z,8.11
2023-03-01T11:38:44.961Z,8.11
2023-03-01T11:39:17.409Z,8.14
2023-03-01T11:39:49.881Z,8.17
2023-03-01T11:40:22.394Z,8.18
2023-03-01T11:40:56.131Z,8.18
2023-03-01T11:41:27.503Z,8.12
2023-03-01T11:42:03.635Z,8.03
2023-03-01T11:42:32.496Z,7.92
2023-03-01T11:43:05.050Z,7.82
2023-03-01T11:43:37.418Z,7.77
2023-03-01T11:44:09.908Z,7.82
2023-03-01T11:44:42.405Z,7.87
2023-03-01T11:45:14.919Z,7.97
2023-03-01T11:45:47.384Z,8.04
2023-03-01T11:46:19.900Z,8.14
2023-03-01T11:46:52.465Z,8.20
2023-03-01T11:47:25.042Z,8.18
2023-03-01T11:47:57.341Z,8.03
2023-03-01T11:48:43.375Z,7.94
2023-03-01T11:49:02.503Z,7.90
2023-03-01T11:49:34.990Z,7.87
2023-03-01T11:50:07.463Z,7.92
2023-03-01T11:50:39.943Z,7.99
2023-03-01T11:51:12.457Z,8.04
2023-03-01T11:51:44.932Z,8.02
2023-03-01T11:52:17.441Z,7.94
2023-03-01T11:52:49.875Z,7.94
2023-03-01T11:53:22.388Z,7.97
2023-03-01T11:53:54.818Z,8.00
2023-03-01T11:54:27.304Z,8.03
2023-03-01T11:54:59.787Z,8.03
2023-03-01T11:55:32.304Z,8.08
2023-03-01T11:56:04.743Z,8.14
2023-03-01T11:56:37.232Z,8.11
2023-03-01T11:57:09.728Z,8.11
2023-03-01T11:57:44.136Z,8.14
2023-03-01T11:58:14.665Z,8.17
2023-03-01T11:58:47.148Z,8.20
2023-03-01T11:59:19.628Z,8.21
2023-03-01T11:59:52.115Z,8.26
2023-03-01T12:00:24.646Z,8.32
2023-03-01T12:00:57.208Z,8.35
2023-03-01T12:01:29.728Z,8.33
2023-03-01T12:02:02.217Z,8.29
2023-03-01T12:02:34.763Z,8.21
2023-03-01T12:03:07.202Z,8.15
2023-03-01T12:03:39.706Z,8.14
2023-03-01T12:04:12.274Z,8.17
2023-03-01T12:04:44.768Z,8.21
2023-03-01T12:05:17.236Z,8.25
2023-03-01T12:05:49.809Z,8.21
2023-03-01T12:06:22.244Z,8.12
2023-03-01T12:06:56.611Z,8.11
2023-03-01T12:07:27.194Z,7.96
2023-03-01T12:07:59.667Z,7.89
2023-03-01T12:08:32.149Z,7.78
2023-03-01T12:09:04.651Z,7.75
2023-03-01T12:09:37.119Z,7.77
2023-03-01T12:10:10.469Z,7.79
2023-03-01T12:10:42.698Z,7.81
2023-03-01T12:11:15.207Z,7.82
2023-03-01T12:11:47.715Z,7.84
2023-03-01T12:12:20.243Z,7.89
2023-03-01T12:12:52.701Z,7.97
2023-03-01T12:13:25.221Z,8.03
2023-03-01T12:13:57.687Z,8.08
2023-03-01T12:14:30.171Z,8.14
2023-03-01T12:15:02.789Z,8.17
2023-03-01T12:15:35.197Z,8.22
2023-03-01T12:16:07.685Z,8.28
2023-03-01T12:16:40.297Z,8.29
2023-03-01T12:17:32.146Z,8.28
2023-03-01T12:18:04.591Z,8.26
2023-03-01T12:18:37.110Z,8.25
2023-03-01T12:19:09.545Z,8.25
2023-03-01T12:19:42.040Z,8.21
2023-03-01T12:20:14.505Z,8.22
2023-03-01T12:20:46.961Z,8.30
2023-03-01T12:21:19.461Z,8.32
2023-03-01T12:21:51.959Z,8.32
2023-03-01T12:22:24.449Z,8.36
2023-03-01T12:22:56.899Z,8.36
2023-03-01T12:23:29.426Z,8.30
2023-03-01T12:24:02.015Z,8.22
2023-03-01T12:24:34.437Z,8.12
2023-03-01T12:25:06.911Z,8.11
2023-03-01T12:25:39.446Z,8.08
2023-03-01T12:26:13.278Z,8.03
2023-03-01T12:26:44.432Z,8.00
2023-03-01T12:27:16.970Z,7.96
2023-03-01T12:27:49.437Z,7.96
2023-03-01T12:28:22.008Z,7.89
2023-03-01T12:28:54.514Z,7.87
2023-03-01T12:29:26.997Z,7.89
2023-03-01T12:29:59.467Z,7.92
2023-03-01T12:30:31.976Z,7.92
2023-03-01T12:31:04.532Z,7.97
2023-03-01T12:31:37.121Z,8.02
2023-03-01T12:32:09.636Z,8.03
2023-03-01T12:32:42.092Z,8.02
2023-03-01T12:33:14.579Z,8.07
2023-03-01T12:33:47.063Z,8.04
2023-03-01T12:34:19.531Z,8.07
2023-03-01T12:34:51.993Z,8.08
2023-03-01T12:35:24.480Z,8.12
2023-03-01T12:35:56.998Z,8.15
2023-03-01T12:36:29.741Z,8.17
2023-03-01T12:37:02.029Z,8.12
2023-03-01T12:37:34.491Z,8.12
2023-03-01T12:38:06.985Z,8.17
2023-03-01T12:38:39.465Z,8.21
2023-03-01T12:39:11.958Z,8.22
2023-03-01T12:39:44.426Z,8.28
2023-03-01T12:40:16.963Z,8.33
2023-03-01T12:40:49.444Z,8.36
2023-03-01T12:41:21.921Z,8.39
2023-03-01T12:41:54.401Z,8.45
2023-03-01T12:42:26.917Z,8.48
2023-03-01T12:42:59.356Z,8.53
2023-03-01T12:43:31.856Z,8.51
2023-03-01T12:44:04.328Z,8.51
2023-03-01T12:44:36.800Z,8.48
2023-03-01T12:45:09.295Z,8.47
2023-03-01T12:45:41.804Z,8.44
2023-03-01T12:46:14.279Z,8.47
2023-03-01T12:46:46.756Z,8.45
2023-03-01T12:47:19.239Z,8.33
2023-03-01T12:47:51.702Z,8.29
2023-03-01T12:48:24.210Z,8.26
2023-03-01T12:48:56.676Z,8.22
2023-03-01T12:49:29.199Z,8.22
2023-03-01T12:50:01.654Z,8.25
2023-03-01T12:50:34.169Z,8.29
2023-03-01T12:51:06.719Z,8.32
2023-03-01T12:51:39.164Z,8.29
2023-03-01T12:52:11.624Z,8.18
2023-03-01T12:52:44.109Z,8.17
2023-03-01T12:53:16.690Z,8.08
2023-03-01T12:53:49.171Z,8.02
2023-03-01T12:54:21.653Z,8.03
2023-03-01T12:54:54.140Z,8.08
2023-03-01T12:55:26.619Z,8.11
2023-03-01T12:55:59.109Z,8.11
2023-03-01T12:56:31.873Z,8.14
2023-03-01T12:57:04.105Z,8.12
2023-03-01T12:57:36.598Z,8.14
2023-03-01T12:58:09.096Z,8.17
2023-03-01T12:58:49.822Z,8.18
2023-03-01T12:59:14.090Z,8.21
2023-03-01T12:59:46.583Z,8.21
2023-03-01T13:00:19.074Z,8.20
2023-03-01T13:00:51.711Z,8.22
2023-03-01T13:01:24.210Z,8.29
2023-03-01T13:01:56.614Z,8.35
2023-03-01T13:02:29.087Z,8.36
2023-03-01T13:03:01.552Z,8.33
2023-03-01T13:03:34.106Z,8.33
2023-03-01T13:04:06.549Z,8.33
2023-03-01T13:04:39.054Z,8.37
2023-03-01T13:05:11.506Z,8.37
2023-03-01T13:05:43.985Z,8.39
2023-03-01T13:06:16.441Z,8.32
2023-03-01T13:06:49.234Z,8.28
2023-03-01T13:07:21.434Z,8.25
2023-03-01T13:07:53.899Z,8.18
2023-03-01T13:08:26.387Z,8.15
2023-03-01T13:08:58.882Z,8.08
2023-03-01T13:09:31.354Z,8.00
2023-03-01T13:10:03.821Z,7.99
2023-03-01T13:10:36.304Z,7.97
2023-03-01T13:11:08.815Z,8.04
2023-03-01T13:11:41.323Z,8.11
2023-03-01T13:12:20.211Z,8.15
2023-03-01T13:12:46.316Z,8.25
2023-03-01T13:13:18.769Z,8.26
2023-03-01T13:13:51.235Z,8.26
2023-03-01T13:14:31.279Z,8.22
2023-03-01T13:15:03.791Z,8.20
2023-03-01T13:15:36.224Z,8.26
2023-03-01T13:16:08.724Z,8.28
2023-03-01T13:16:41.171Z,8.33
2023-03-01T13:17:13.659Z,8.35
2023-03-01T13:17:46.168Z,8.35
2023-03-01T13:18:18.611Z,8.39
2023-03-01T13:18:51.110Z,8.42
2023-03-01T13:19:23.576Z,8.47
2023-03-01T13:19:56.051Z,8.47
2023-03-01T13:20:28.517Z,8.45
2023-03-01T13:21:00.980Z,8.42
2023-03-01T13:21:33.455Z,8.42
2023-03-01T13:22:05.897Z,8.47
2023-03-01T13:22:49.807Z,8.45
2023-03-01T13:23:10.789Z,8.51
2023-03-01T13:23:43.239Z,8.54
2023-03-01T13:24:15.695Z,8.57
2023-03-01T13:24:48.186Z,8.55
2023-03-01T13:25:20.735Z,8.57
2023-03-01T13:25:53.209Z,8.53
2023-03-01T13:26:25.715Z,8.44
2023-03-01T13:26:58.205Z,8.37
2023-03-01T13:27:30.706Z,8.39
2023-03-01T13:28:03.179Z,8.35
2023-03-01T13:28:35.645Z,8.33
2023-03-01T13:29:08.093Z,8.36
2023-03-01T13:29:40.612Z,8.40
2023-03-01T13:30:13.073Z,8.39
2023-03-01T13:30:45.549Z,8.45
2023-03-01T13:31:18.015Z,8.45
2023-03-01T13:31:50.731Z,8.44
2023-03-01T13:32:28.831Z,8.47
2023-03-01T13:32:55.641Z,8.51
2023-03-01T13:33:27.940Z,8.50
2023-03-01T13:34:00.444Z,8.45
2023-03-01T13:34:32.954Z,8.50
2023-03-01T13:35:05.456Z,8.47
2023-03-01T13:35:37.934Z,8.39
2023-03-01T13:36:10.422Z,8.32
2023-03-01T13:36:42.888Z,8.32
2023-03-01T13:37:15.311Z,8.29
2023-03-01T13:37:47.825Z,8.22
2023-03-01T13:38:20.254Z,8.22
2023-03-01T13:38:52.696Z,8.17
2023-03-01T13:39:25.145Z,8.14
2023-03-01T13:39:57.615Z,8.17
2023-03-01T13:40:30.058Z,8.17
2023-03-01T13:41:02.569Z,8.18
2023-03-01T13:41:35.133Z,8.17
2023-03-01T13:42:07.595Z,8.17
2023-03-01T13:42:40.076Z,8.12
2023-03-01T13:43:12.537Z,8.11
2023-03-01T13:43:45.003Z,8.10
2023-03-01T13:44:17.485Z,8.07
2023-03-01T13:44:49.950Z,8.10
2023-03-01T13:45:22.507Z,8.12
2023-03-01T13:45:55.178Z,8.14
2023-03-01T13:46:27.693Z,8.18
2023-03-01T13:47:00.184Z,8.20
2023-03-01T13:47:32.677Z,8.17
2023-03-01T13:48:05.116Z,8.17
2023-03-01T13:48:37.582Z,8.20
2023-03-01T13:49:10.136Z,8.22
2023-03-01T13:49:46.605Z,8.28
2023-03-01T13:50:15.079Z,8.33
2023-03-01T13:50:47.614Z,8.36
2023-03-01T13:51:20.078Z,8.44
2023-03-01T13:51:52.662Z,8.44
2023-03-01T13:52:24.998Z,8.50
2023-03-01T13:52:57.467Z,8.54
2023-03-01T13:53:29.950Z,8.57
2023-03-01T13:54:02.433Z,8.54
2023-03-01T13:54:34.899Z,8.51
2023-03-01T13:55:07.375Z,8.48
2023-03-01T13:55:39.846Z,8.50
2023-03-01T13:56:12.297Z,8.53
2023-03-01T13:56:44.972Z,8.50
2023-03-01T13:57:17.473Z,8.47
2023-03-01T13:57:49.941Z,8.47
2023-03-01T13:58:22.416Z,8.45
2023-03-01T13:58:54.852Z,8.44
2023-03-01T13:59:27.355Z,8.44
2023-03-01T13:59:59.776Z,8.40
2023-03-01T14:00:32.243Z,8.39
2023-03-01T14:01:04.806Z,8.37
2023-03-01T14:01:37.404Z,8.32
2023-03-01T14:02:09.750Z,8.29
2023-03-01T14:02:42.208Z,8.29
2023-03-01T14:03:14.657Z,8.30
2023-03-01T14:03:47.177Z,8.32
2023-03-01T14:04:19.630Z,8.32
2023-03-01T14:04:52.119Z,8.35
2023-03-01T14:05:24.584Z,8.32
2023-03-01T14:06:04.633Z,8.26